createdAt,value
2019-05-18T00:02:06.265Z,13.30
2019-05-18T00:04:34.788Z,13.20
2019-05-18T00:07:03.212Z,13.20
2019-05-18T00:09:31.551Z,13.20
2019-05-18T00:11:59.914Z,13.20
2019-05-18T00:14:28.369Z,13.20
2019-05-18T00:16:56.693Z,13.20
2019-05-18T00:19:25.094Z,13.20
2019-05-18T00:21:54.043Z,13.20
2019-05-18T00:24:22.401Z,13.20
2019-05-18T00:26:50.718Z,13.20
2019-05-18T00:29:19.179Z,13.20
2019-05-18T00:31:47.532Z,13.20
2019-05-18T00:34:15.855Z,13.20
2019-05-18T00:36:44.317Z,13.20
2019-05-18T00:39:12.632Z,13.10
2019-05-18T00:41:41.075Z,13.10
2019-05-18T00:44:09.758Z,13.10
2019-05-18T00:46:38.075Z,13.10
2019-05-18T00:49:06.475Z,13.10
2019-05-18T00:51:35.076Z,13.00
2019-05-18T00:54:03.562Z,13.00
2019-05-18T00:56:31.941Z,13.00
2019-05-18T00:59:00.526Z,13.10
2019-05-18T01:01:28.855Z,13.10
2019-05-18T01:03:57.178Z,13.10
2019-05-18T01:06:25.964Z,13.00
2019-05-18T01:08:54.317Z,13.10
2019-05-18T01:11:22.635Z,13.00
2019-05-18T01:13:51.107Z,13.00
2019-05-18T01:16:19.480Z,13.00
2019-05-18T01:18:47.831Z,12.90
2019-05-18T01:21:16.256Z,12.90
2019-05-18T01:23:44.556Z,12.80
2019-05-18T01:26:12.898Z,12.80
2019-05-18T01:28:41.498Z,12.70
2019-05-18T01:31:09.812Z,12.70
2019-05-18T01:33:38.146Z,12.60
2019-05-18T01:36:06.861Z,12.50
2019-05-18T01:38:35.191Z,12.50
2019-05-18T01:41:03.500Z,12.40
2019-05-18T01:43:32.382Z,12.40
2019-05-18T01:46:00.668Z,12.30
2019-05-18T01:48:28.998Z,12.20
2019-05-18T01:50:57.528Z,12.10
2019-05-18T01:53:25.842Z,12.10
2019-05-18T01:55:54.138Z,12.00
2019-05-18T01:58:22.828Z,11.90
2019-05-18T02:00:51.139Z,11.80
2019-05-18T02:03:19.463Z,11.80
2019-05-18T02:05:48.013Z,11.70
2019-05-18T02:08:16.352Z,11.70
2019-05-18T02:10:44.668Z,11.70
2019-05-18T02:13:13.138Z,11.60
2019-05-18T02:15:41.462Z,11.60
2019-05-18T02:18:09.816Z,11.60
2019-05-18T02:20:38.315Z,11.50
2019-05-18T02:23:06.627Z,11.40
2019-05-18T02:25:34.971Z,11.30
2019-05-18T02:28:03.811Z,11.30
2019-05-18T02:30:32.130Z,11.30
2019-05-18T02:33:00.447Z,11.20
2019-05-18T02:35:29.124Z,11.10
2019-05-18T02:38:01.700Z,11.10
2019-05-18T02:40:30.197Z,11.00
2019-05-18T02:42:58.696Z,10.90
2019-05-18T02:45:27.030Z,10.90
2019-05-18T02:47:55.620Z,10.90
2019-05-18T02:50:23.943Z,11.00
2019-05-18T02:52:52.390Z,11.00
2019-05-18T02:55:20.806Z,11.10
2019-05-18T02:57:49.142Z,11.20
2019-05-18T03:00:17.508Z,11.40
2019-05-18T03:02:46.061Z,11.50
2019-05-18T03:05:14.420Z,11.60
2019-05-18T03:07:42.756Z,11.60
2019-05-18T03:10:11.246Z,11.70
2019-05-18T03:12:39.592Z,11.80
2019-05-18T03:15:07.950Z,11.90
2019-05-18T03:17:36.301Z,11.90
2019-05-18T03:20:04.728Z,12.00
2019-05-18T03:22:33.358Z,12.00
2019-05-18T03:25:01.749Z,12.00
2019-05-18T03:27:30.124Z,12.10
2019-05-18T03:29:58.466Z,12.10
2019-05-18T03:32:27.185Z,12.20
2019-05-18T03:34:55.473Z,12.20
2019-05-18T03:37:23.843Z,12.10
2019-05-18T03:39:52.493Z,12.10
2019-05-18T03:42:21.027Z,12.10
2019-05-18T03:44:49.385Z,12.10
2019-05-18T03:47:17.917Z,12.00
2019-05-18T03:49:46.297Z,12.00
2019-05-18T03:52:14.608Z,12.00
2019-05-18T03:54:43.116Z,12.00
2019-05-18T03:57:11.463Z,12.10
2019-05-18T03:59:39.781Z,12.10
2019-05-18T04:02:08.366Z,12.10
2019-05-18T04:04:36.716Z,12.10
2019-05-18T04:07:05.072Z,12.20
2019-05-18T04:09:33.525Z,12.20
2019-05-18T04:12:01.871Z,12.30
2019-05-18T04:14:30.181Z,12.40
2019-05-18T04:16:58.789Z,12.40
2019-05-18T04:19:44.962Z,12.40
2019-05-18T04:21:55.682Z,12.50
2019-05-18T04:24:24.823Z,12.60
2019-05-18T04:26:53.157Z,12.70
2019-05-18T04:29:21.742Z,12.80
2019-05-18T04:31:50.729Z,12.90
2019-05-18T04:34:19.051Z,13.00
2019-05-18T04:36:47.403Z,12.90
2019-05-18T04:39:15.849Z,13.00
2019-05-18T04:41:44.192Z,12.90
2019-05-18T04:44:12.508Z,13.00
2019-05-18T04:46:47.217Z,13.00
2019-05-18T04:49:15.524Z,13.10
2019-05-18T04:51:43.801Z,13.10
2019-05-18T04:54:12.591Z,13.20
2019-05-18T04:56:43.025Z,13.20
2019-05-18T04:59:09.340Z,13.30
2019-05-18T05:01:37.772Z,13.40
2019-05-18T05:04:06.087Z,13.40
2019-05-18T05:06:34.491Z,13.50
2019-05-18T05:09:02.942Z,13.60
2019-05-18T05:11:31.266Z,13.80
2019-05-18T05:13:59.619Z,14.00
2019-05-18T05:16:28.179Z,14.10
2019-05-18T05:18:56.496Z,14.20
2019-05-18T05:21:24.798Z,14.20
2019-05-18T05:23:53.423Z,14.20
2019-05-18T05:26:21.773Z,14.20
2019-05-18T05:28:50.337Z,14.30
2019-05-18T05:31:18.881Z,14.40
2019-05-18T05:33:47.218Z,14.50
2019-05-18T05:36:15.557Z,14.70
2019-05-18T05:38:44.325Z,14.70
2019-05-18T05:41:16.486Z,14.70
2019-05-18T05:43:41.054Z,14.70
2019-05-18T05:46:09.609Z,14.90
2019-05-18T05:48:37.939Z,14.90
2019-05-18T05:51:06.267Z,15.00
2019-05-18T05:53:34.699Z,15.00
2019-05-18T05:56:03.145Z,15.10
2019-05-18T05:58:31.450Z,15.10
2019-05-18T06:01:00.350Z,15.20
2019-05-18T06:03:28.771Z,15.30
2019-05-18T06:05:57.106Z,15.30
2019-05-18T06:08:25.790Z,15.40
2019-05-18T06:10:54.092Z,15.40
2019-05-18T06:13:22.420Z,15.60
2019-05-18T06:15:51.092Z,15.70
2019-05-18T06:18:19.430Z,15.90
2019-05-18T06:20:51.292Z,16.00
2019-05-18T06:23:16.464Z,16.20
2019-05-18T06:25:44.766Z,16.20
2019-05-18T06:28:13.147Z,16.20
2019-05-18T06:30:41.611Z,16.20
2019-05-18T06:33:09.939Z,16.30
2019-05-18T06:35:38.311Z,16.30
2019-05-18T06:38:06.781Z,16.30
2019-05-18T06:40:35.169Z,16.40
2019-05-18T06:43:03.580Z,16.30
2019-05-18T06:45:32.276Z,16.30
2019-05-18T06:48:00.654Z,16.30
2019-05-18T06:50:29.467Z,16.30
2019-05-18T06:52:58.454Z,16.30
2019-05-18T06:55:26.930Z,16.40
2019-05-18T06:57:56.771Z,16.50
2019-05-18T07:00:25.222Z,16.50
2019-05-18T07:02:53.647Z,16.70
2019-05-18T07:05:22.099Z,16.90
2019-05-18T07:07:50.601Z,17.20
2019-05-18T07:10:18.987Z,17.50
2019-05-18T07:12:47.322Z,17.70
2019-05-18T07:15:15.949Z,17.90
2019-05-18T07:17:44.350Z,18.10
2019-05-18T07:20:12.849Z,18.30
2019-05-18T07:22:41.397Z,18.60
2019-05-18T07:25:09.808Z,18.90
2019-05-18T07:27:38.324Z,19.10
2019-05-18T07:30:06.793Z,19.20
2019-05-18T07:32:35.176Z,19.60
2019-05-18T07:35:03.571Z,19.70
2019-05-18T07:37:32.219Z,19.60
2019-05-18T07:40:00.718Z,19.70
2019-05-18T07:42:29.053Z,19.90
2019-05-18T07:44:57.647Z,20.00
2019-05-18T07:47:26.162Z,20.00
2019-05-18T07:49:54.463Z,19.80
2019-05-18T07:52:23.529Z,19.60
2019-05-18T07:54:51.943Z,19.60
2019-05-18T07:57:20.319Z,19.70
2019-05-18T07:59:49.174Z,19.60
2019-05-18T08:02:17.506Z,19.40
2019-05-18T08:04:45.951Z,19.70
2019-05-18T08:07:14.434Z,19.90
2019-05-18T08:09:42.771Z,20.30
2019-05-18T08:12:11.160Z,20.40
2019-05-18T08:14:39.863Z,20.20
2019-05-18T08:17:08.264Z,20.30
2019-05-18T08:19:36.651Z,20.40
2019-05-18T08:22:06.532Z,20.60
2019-05-18T08:24:34.869Z,20.60
2019-05-18T08:27:03.245Z,20.80
2019-05-18T08:29:31.834Z,20.50
2019-05-18T08:32:00.160Z,19.90
2019-05-18T08:34:28.465Z,19.80
2019-05-18T08:36:56.967Z,20.00
2019-05-18T08:39:25.484Z,20.10
2019-05-18T08:41:53.819Z,20.20
2019-05-18T08:44:22.273Z,20.60
2019-05-18T08:46:50.622Z,21.00
2019-05-18T08:49:18.950Z,20.90
2019-05-18T08:51:47.691Z,21.00
2019-05-18T08:54:22.556Z,20.90
2019-05-18T08:56:50.972Z,20.80
2019-05-18T08:59:19.349Z,20.90
2019-05-18T09:01:47.731Z,20.60
2019-05-18T09:04:16.166Z,20.40
2019-05-18T09:06:44.566Z,20.40
2019-05-18T09:09:13.068Z,20.50
2019-05-18T09:11:41.521Z,20.40
2019-05-18T09:14:09.902Z,20.60
2019-05-18T09:16:38.253Z,20.90
2019-05-18T09:19:06.761Z,21.50
2019-05-18T09:21:35.116Z,22.10
2019-05-18T09:24:10.127Z,22.40
2019-05-18T09:26:38.459Z,22.60
2019-05-18T09:29:06.854Z,23.00
2019-05-18T09:31:35.409Z,22.90
2019-05-18T09:34:03.821Z,23.30
2019-05-18T09:36:32.184Z,23.30
2019-05-18T09:39:00.628Z,23.50
2019-05-18T09:41:28.944Z,23.50
2019-05-18T09:43:57.312Z,23.40
2019-05-18T09:46:25.847Z,23.50
2019-05-18T09:48:54.186Z,23.90
2019-05-18T09:51:22.583Z,24.20
2019-05-18T09:53:52.077Z,24.20
2019-05-18T09:56:19.581Z,24.30
2019-05-18T09:58:48.002Z,24.40
2019-05-18T10:01:16.642Z,24.60
2019-05-18T10:03:44.960Z,24.10
2019-05-18T10:06:13.356Z,24.00
2019-05-18T10:08:41.863Z,24.00
2019-05-18T10:11:10.196Z,24.00
2019-05-18T10:13:38.571Z,24.00
2019-05-18T10:16:07.107Z,24.30
2019-05-18T10:18:35.547Z,24.10
2019-05-18T10:21:03.999Z,24.40
2019-05-18T10:23:32.623Z,24.80
2019-05-18T10:26:00.929Z,25.00
2019-05-18T10:28:29.270Z,25.00
2019-05-18T10:30:57.600Z,25.40
2019-05-18T10:33:25.966Z,25.40
2019-05-18T10:36:01.615Z,25.70
2019-05-18T10:38:29.936Z,25.90
2019-05-18T10:40:58.262Z,25.70
2019-05-18T10:43:26.831Z,25.50
2019-05-18T10:45:55.173Z,25.30
2019-05-18T10:48:23.515Z,24.70
2019-05-18T10:50:52.291Z,24.10
2019-05-18T10:53:28.817Z,23.90
2019-05-18T10:55:49.052Z,23.80
2019-05-18T10:58:18.203Z,24.00
2019-05-18T11:00:46.535Z,24.50
2019-05-18T11:03:14.878Z,24.80
2019-05-18T11:05:43.480Z,25.00
2019-05-18T11:08:11.785Z,25.10
2019-05-18T11:10:40.134Z,25.30
2019-05-18T11:13:09.068Z,25.00
2019-05-18T11:15:37.407Z,24.60
2019-05-18T11:18:05.783Z,24.80
2019-05-18T11:20:34.340Z,25.20
2019-05-18T11:23:02.744Z,25.40
2019-05-18T11:25:31.064Z,24.90
2019-05-18T11:27:59.682Z,24.40
2019-05-18T11:30:28.189Z,24.20
2019-05-18T11:32:56.567Z,24.00
2019-05-18T11:35:25.047Z,23.60
2019-05-18T11:37:53.388Z,23.40
2019-05-18T11:40:21.762Z,22.90
2019-05-18T11:42:50.257Z,22.80
2019-05-18T11:45:18.614Z,22.80
2019-05-18T11:47:46.966Z,22.90
2019-05-18T11:50:15.524Z,23.00
2019-05-18T11:52:43.910Z,22.90
2019-05-18T11:55:12.280Z,22.70
2019-05-18T11:57:41.112Z,22.90
2019-05-18T12:00:09.669Z,22.80
2019-05-18T12:02:38.056Z,22.90
2019-05-18T12:05:06.540Z,22.80
2019-05-18T12:07:34.939Z,22.60
2019-05-18T12:10:03.318Z,22.40
2019-05-18T12:12:31.832Z,22.60
2019-05-18T12:15:00.176Z,22.70
2019-05-18T12:17:28.516Z,22.60
2019-05-18T12:19:57.296Z,22.70
2019-05-18T12:22:25.597Z,22.70
2019-05-18T12:24:53.917Z,22.70
2019-05-18T12:27:22.605Z,22.50
2019-05-18T12:29:51.184Z,22.80
2019-05-18T12:32:19.552Z,23.10
2019-05-18T12:34:48.200Z,23.30
2019-05-18T12:37:20.796Z,23.40
2019-05-18T12:39:49.241Z,23.30
2019-05-18T12:42:17.586Z,23.00
2019-05-18T12:44:45.926Z,22.90
2019-05-18T12:47:14.675Z,22.80
2019-05-18T12:49:42.920Z,22.70
2019-05-18T12:52:11.248Z,22.50
2019-05-18T12:54:46.458Z,22.30
2019-05-18T12:57:08.336Z,22.20
2019-05-18T12:59:36.883Z,21.70
2019-05-18T13:02:05.335Z,21.60
2019-05-18T13:04:33.769Z,21.70
2019-05-18T13:07:02.121Z,21.30
2019-05-18T13:09:31.014Z,21.30
2019-05-18T13:11:59.361Z,21.20
2019-05-18T13:14:27.669Z,21.20
2019-05-18T13:16:56.123Z,21.10
2019-05-18T13:19:24.508Z,21.10
2019-05-18T13:21:52.858Z,21.20
2019-05-18T13:24:21.503Z,21.20
2019-05-18T13:26:49.990Z,21.20
2019-05-18T13:29:18.352Z,21.40
2019-05-18T13:31:46.792Z,21.30
2019-05-18T13:34:15.130Z,21.30
2019-05-18T13:36:43.732Z,21.20
2019-05-18T13:39:12.165Z,21.20
2019-05-18T13:41:40.547Z,21.30
2019-05-18T13:44:08.846Z,21.20
2019-05-18T13:46:37.311Z,21.10
2019-05-18T13:49:05.685Z,21.00
2019-05-18T13:51:34.031Z,21.00
2019-05-18T13:54:02.515Z,21.00
2019-05-18T13:56:30.819Z,21.00
2019-05-18T13:58:59.232Z,21.00
2019-05-18T14:01:28.101Z,20.90
2019-05-18T14:03:56.624Z,20.90
2019-05-18T14:06:25.200Z,21.00
2019-05-18T14:08:53.941Z,21.10
2019-05-18T14:11:22.311Z,21.10
2019-05-18T14:13:50.709Z,21.20
2019-05-18T14:16:19.156Z,21.00
2019-05-18T14:18:47.740Z,21.00
2019-05-18T14:21:16.077Z,21.00
2019-05-18T14:23:45.270Z,20.90
2019-05-18T14:26:13.711Z,20.90
2019-05-18T14:28:42.080Z,20.80
2019-05-18T14:31:10.756Z,20.80
2019-05-18T14:33:39.100Z,20.90
2019-05-18T14:36:07.500Z,21.00
2019-05-18T14:38:36.296Z,20.90
2019-05-18T14:41:04.620Z,20.80
2019-05-18T14:43:32.996Z,20.80
2019-05-18T14:46:01.341Z,20.80
2019-05-18T14:48:29.999Z,20.70
2019-05-18T14:50:58.550Z,20.70
2019-05-18T14:53:27.079Z,20.60
2019-05-18T14:55:55.438Z,20.60
2019-05-18T14:58:23.789Z,20.50
2019-05-18T15:00:52.656Z,20.50
2019-05-18T15:03:21.038Z,20.30
2019-05-18T15:05:49.358Z,20.10
2019-05-18T15:08:18.025Z,19.80
2019-05-18T15:10:46.392Z,19.70
2019-05-18T15:13:14.750Z,19.60
2019-05-18T15:15:43.273Z,19.60
2019-05-18T15:18:11.743Z,19.50
2019-05-18T15:20:40.094Z,19.50
2019-05-18T15:23:08.508Z,19.60
2019-05-18T15:25:49.659Z,19.80
2019-05-18T15:28:05.317Z,19.80
2019-05-18T15:30:33.986Z,19.70
2019-05-18T15:33:02.482Z,19.60
2019-05-18T15:35:30.817Z,19.70
2019-05-18T15:37:59.430Z,19.50
2019-05-18T15:40:27.814Z,18.90
2019-05-18T15:42:56.171Z,18.70
2019-05-18T15:45:24.924Z,18.70
2019-05-18T15:47:53.161Z,18.60
2019-05-18T15:50:21.580Z,18.50
2019-05-18T15:52:49.995Z,18.50
2019-05-18T15:55:18.379Z,18.70
2019-05-18T15:57:46.823Z,18.80
2019-05-18T16:00:15.264Z,18.90
2019-05-18T16:02:43.661Z,18.80
2019-05-18T16:05:12.049Z,18.70
2019-05-18T16:07:40.393Z,18.80
2019-05-18T16:10:08.807Z,18.90
2019-05-18T16:12:37.244Z,19.10
2019-05-18T16:15:06.638Z,19.10
2019-05-18T16:17:39.305Z,19.10
2019-05-18T16:20:03.806Z,19.10
2019-05-18T16:22:32.143Z,19.10
2019-05-18T16:25:00.445Z,19.10
2019-05-18T16:27:28.871Z,19.00
2019-05-18T16:29:57.286Z,18.90
2019-05-18T16:32:26.245Z,18.90
2019-05-18T16:34:54.594Z,18.90
2019-05-18T16:37:23.110Z,18.90
2019-05-18T16:39:51.590Z,19.00
2019-05-18T16:42:26.796Z,19.20
2019-05-18T16:44:55.150Z,19.30
2019-05-18T16:47:23.545Z,19.30
2019-05-18T16:49:52.097Z,19.30
2019-05-18T16:52:20.462Z,19.10
2019-05-18T16:54:48.798Z,18.80
2019-05-18T16:57:17.159Z,18.80
2019-05-18T16:59:46.022Z,18.80
2019-05-18T17:02:30.295Z,18.90
2019-05-18T17:04:43.259Z,19.00
2019-05-18T17:07:11.657Z,18.90
2019-05-18T17:09:39.970Z,18.80
2019-05-18T17:12:08.583Z,18.70
2019-05-18T17:14:36.967Z,18.60
2019-05-18T17:17:05.319Z,18.40
2019-05-18T17:19:33.755Z,18.10
2019-05-18T17:22:02.122Z,17.90
2019-05-18T17:24:30.501Z,17.80
2019-05-18T17:26:58.867Z,17.80
2019-05-18T17:29:27.233Z,17.70
2019-05-18T17:31:55.728Z,17.60
2019-05-18T17:34:24.277Z,17.50
2019-05-18T17:36:52.850Z,17.40
2019-05-18T17:39:21.190Z,17.30
2019-05-18T17:41:50.036Z,17.20
2019-05-18T17:44:18.546Z,17.00
2019-05-18T17:46:46.886Z,16.90
2019-05-18T17:49:26.480Z,16.90
2019-05-18T17:51:43.630Z,16.80
2019-05-18T17:54:11.956Z,16.70
2019-05-18T17:56:40.620Z,16.60
2019-05-18T17:59:08.940Z,16.70
2019-05-18T18:01:37.271Z,16.80
2019-05-18T18:04:06.075Z,16.80
2019-05-18T18:06:34.462Z,16.80
2019-05-18T18:09:02.873Z,16.70
2019-05-18T18:11:31.325Z,16.70
2019-05-18T18:13:59.618Z,16.60
2019-05-18T18:16:27.985Z,16.60
2019-05-18T18:18:56.623Z,16.60
2019-05-18T18:21:25.026Z,16.60
2019-05-18T18:23:55.227Z,16.50
2019-05-18T18:26:21.799Z,16.40
2019-05-18T18:28:50.099Z,16.30
2019-05-18T18:31:18.973Z,16.20
2019-05-18T18:33:47.651Z,16.20
2019-05-18T18:36:15.975Z,16.10
2019-05-18T18:38:44.332Z,16.10
2019-05-18T18:41:12.746Z,16.00
2019-05-18T18:43:41.121Z,16.00
2019-05-18T18:46:09.480Z,15.90
2019-05-18T18:48:37.962Z,15.90
2019-05-18T18:51:06.613Z,15.90
2019-05-18T18:53:34.970Z,15.80
2019-05-18T18:56:03.453Z,15.80
2019-05-18T18:58:31.782Z,15.80
2019-05-18T19:01:00.201Z,15.70
2019-05-18T19:03:28.812Z,15.60
2019-05-18T19:05:57.135Z,15.60
2019-05-18T19:08:25.474Z,15.60
2019-05-18T19:10:53.954Z,15.60
2019-05-18T19:13:22.293Z,15.60
2019-05-18T19:15:50.612Z,15.50
2019-05-18T19:18:19.112Z,15.50
2019-05-18T19:20:47.444Z,15.50
2019-05-18T19:23:15.736Z,15.40
2019-05-18T19:25:44.527Z,15.40
2019-05-18T19:28:12.874Z,15.30
2019-05-18T19:30:41.271Z,15.20
2019-05-18T19:33:09.593Z,15.20
2019-05-18T19:35:37.985Z,15.10
2019-05-18T19:38:06.298Z,15.10
2019-05-18T19:40:34.871Z,15.10
2019-05-18T19:43:03.312Z,15.10
2019-05-18T19:45:31.713Z,15.00
2019-05-18T19:48:00.146Z,15.00
2019-05-18T19:50:28.519Z,15.00
2019-05-18T19:53:03.568Z,15.00
2019-05-18T19:55:31.940Z,15.00
2019-05-18T19:58:08.498Z,15.00
2019-05-18T20:00:29.041Z,15.00
2019-05-18T20:02:57.432Z,15.00
2019-05-18T20:05:25.779Z,15.00
2019-05-18T20:07:54.127Z,15.00
2019-05-18T20:10:22.720Z,15.00
2019-05-18T20:12:51.102Z,15.00
2019-05-18T20:15:19.635Z,15.00
2019-05-18T20:17:47.950Z,15.00
2019-05-18T20:20:16.314Z,14.90
2019-05-18T20:22:45.078Z,14.90
2019-05-18T20:25:13.483Z,14.90
2019-05-18T20:27:42.113Z,15.00
2019-05-18T20:30:10.847Z,15.00
2019-05-18T20:32:39.276Z,14.90
2019-05-18T20:35:07.732Z,14.90
2019-05-18T20:37:36.089Z,14.80
2019-05-18T20:40:04.697Z,14.80
2019-05-18T20:42:33.037Z,14.80
2019-05-18T20:45:01.389Z,14.70
2019-05-18T20:47:29.781Z,14.60
2019-05-18T20:49:58.127Z,14.60
2019-05-18T20:52:26.890Z,14.50
2019-05-18T20:54:55.225Z,14.50
2019-05-18T20:57:23.718Z,14.60
2019-05-18T20:59:52.345Z,14.60
2019-05-18T21:02:20.701Z,14.70
2019-05-18T21:04:49.044Z,14.70
2019-05-18T21:07:17.603Z,14.70
2019-05-18T21:09:45.954Z,14.70
2019-05-18T21:12:14.278Z,14.70
2019-05-18T21:14:42.756Z,14.70
2019-05-18T21:17:11.091Z,14.80
2019-05-18T21:19:39.429Z,14.70
2019-05-18T21:22:07.900Z,14.70
2019-05-18T21:24:36.398Z,14.60
2019-05-18T21:27:04.725Z,14.50
2019-05-18T21:29:33.596Z,14.50
2019-05-18T21:32:01.975Z,14.40
2019-05-18T21:34:30.286Z,14.40
2019-05-18T21:36:58.896Z,14.30
2019-05-18T21:39:27.254Z,14.30
2019-05-18T21:41:55.673Z,14.30
2019-05-18T21:44:24.481Z,14.10
2019-05-18T21:46:52.858Z,13.90
2019-05-18T21:49:21.238Z,13.70
2019-05-18T21:51:49.690Z,13.50
2019-05-18T21:54:18.024Z,13.40
2019-05-18T21:56:46.370Z,13.20
2019-05-18T21:59:14.946Z,13.00
2019-05-18T22:01:43.275Z,12.80
2019-05-18T22:04:11.626Z,12.70
2019-05-18T22:06:40.501Z,12.60
2019-05-18T22:09:08.818Z,12.50
2019-05-18T22:11:37.270Z,12.50
2019-05-18T22:14:05.893Z,12.40
2019-05-18T22:16:34.265Z,12.40
2019-05-18T22:19:02.607Z,12.30
2019-05-18T22:21:31.250Z,12.30
2019-05-18T22:23:59.636Z,12.20
2019-05-18T22:26:27.965Z,12.20
2019-05-18T22:28:56.695Z,12.20
2019-05-18T22:31:25.050Z,12.20
2019-05-18T22:33:53.384Z,12.20
2019-05-18T22:36:22.273Z,12.20
2019-05-18T22:38:50.625Z,12.20
2019-05-18T22:41:18.976Z,12.20
2019-05-18T22:43:47.577Z,12.20
2019-05-18T22:46:15.889Z,12.10
2019-05-18T22:48:44.221Z,12.10
2019-05-18T22:51:13.042Z,12.10
2019-05-18T22:53:41.647Z,12.10
2019-05-18T22:56:09.972Z,12.00
2019-05-18T22:58:38.918Z,12.00
2019-05-18T23:01:07.241Z,12.00
2019-05-18T23:03:35.627Z,11.90
2019-05-18T23:06:04.081Z,12.00
2019-05-18T23:08:33.363Z,12.00
2019-05-18T23:11:01.709Z,12.00
2019-05-18T23:13:30.442Z,11.90
2019-05-18T23:15:58.790Z,11.90
2019-05-18T23:18:27.065Z,12.00
2019-05-18T23:20:55.564Z,11.90
2019-05-18T23:23:23.897Z,11.90
2019-05-18T23:25:52.233Z,12.00
2019-05-18T23:28:20.664Z,12.00
2019-05-18T23:30:48.989Z,11.90
2019-05-18T23:33:17.362Z,11.90
2019-05-18T23:35:45.917Z,11.90
2019-05-18T23:38:14.285Z,11.80
2019-05-18T23:40:43.031Z,11.80
2019-05-18T23:43:11.570Z,11.70
2019-05-18T23:45:39.925Z,11.70
2019-05-18T23:48:08.258Z,11.70
2019-05-18T23:50:36.719Z,11.60
2019-05-18T23:53:05.067Z,11.60
2019-05-18T23:55:33.523Z,11.50
2019-05-18T23:58:05.924Z,11.50
